sensor_id;sensor_type;location;lat;lon;timestamp;P1;durP1;ratioP1;P2;durP2;ratioP2
51525;SDS011;37611;51.794;21.590;2022-07-29T00:00:16;9.80;;;6.10;;
51525;SDS011;37611;51.794;21.590;2022-07-29T00:04:36;10.50;;;5.80;;
51525;SDS011;37611;51.794;21.590;2022-07-29T00:08:38;10.80;;;5.10;;
51525;SDS011;37611;51.794;21.590;2022-07-29T00:12:40;16.00;;;7.60;;
51525;SDS011;37611;51.794;21.590;2022-07-29T00:16:42;14.80;;;7.30;;
51525;SDS011;37611;51.794;21.590;2022-07-29T00:20:43;12.60;;;6.10;;
51525;SDS011;37611;51.794;21.590;2022-07-29T00:24:47;15.50;;;8.40;;
51525;SDS011;37611;51.794;21.590;2022-07-29T00:28:50;10.00;;;6.80;;
51525;SDS011;37611;51.794;21.590;2022-07-29T00:32:51;9.70;;;5.60;;
51525;SDS011;37611;51.794;21.590;2022-07-29T00:36:53;7.80;;;4.90;;
51525;SDS011;37611;51.794;21.590;2022-07-29T00:40:55;6.50;;;4.30;;
51525;SDS011;37611;51.794;21.590;2022-07-29T00:44:56;7.50;;;4.40;;
51525;SDS011;37611;51.794;21.590;2022-07-29T00:48:58;10.30;;;5.90;;
51525;SDS011;37611;51.794;21.590;2022-07-29T00:53:00;10.80;;;5.50;;
51525;SDS011;37611;51.794;21.590;2022-07-29T00:57:02;7.00;;;4.60;;
51525;SDS011;37611;51.794;21.590;2022-07-29T01:01:04;9.10;;;4.60;;
51525;SDS011;37611;51.794;21.590;2022-07-29T01:05:06;7.40;;;4.00;;
51525;SDS011;37611;51.794;21.590;2022-07-29T01:09:08;8.10;;;3.50;;
51525;SDS011;37611;51.794;21.590;2022-07-29T01:13:10;8.30;;;4.60;;
51525;SDS011;37611;51.794;21.590;2022-07-29T01:21:27;12.70;;;5.90;;
51525;SDS011;37611;51.794;21.590;2022-07-29T01:30:38;16.00;;;6.00;;
51525;SDS011;37611;51.794;21.590;2022-07-29T01:38:50;15.60;;;6.60;;
51525;SDS011;37611;51.794;21.590;2022-07-29T01:43:13;7.40;;;4.50;;
51525;SDS011;37611;51.794;21.590;2022-07-29T01:47:19;6.80;;;4.90;;
51525;SDS011;37611;51.794;21.590;2022-07-29T01:51:25;8.40;;;4.40;;
51525;SDS011;37611;51.794;21.590;2022-07-29T01:55:35;7.50;;;4.40;;
51525;SDS011;37611;51.794;21.590;2022-07-29T01:59:41;6.90;;;3.90;;
51525;SDS011;37611;51.794;21.590;2022-07-29T02:03:46;4.70;;;3.50;;
51525;SDS011;37611;51.794;21.590;2022-07-29T02:07:49;5.90;;;3.80;;
51525;SDS011;37611;51.794;21.590;2022-07-29T02:11:53;5.50;;;3.50;;
51525;SDS011;37611;51.794;21.590;2022-07-29T02:15:57;4.40;;;3.50;;
51525;SDS011;37611;51.794;21.590;2022-07-29T02:20:02;10.10;;;4.00;;
51525;SDS011;37611;51.794;21.590;2022-07-29T02:24:05;5.60;;;3.20;;
51525;SDS011;37611;51.794;21.590;2022-07-29T02:28:09;9.00;;;3.70;;
51525;SDS011;37611;51.794;21.590;2022-07-29T02:32:13;5.10;;;3.60;;
51525;SDS011;37611;51.794;21.590;2022-07-29T02:36:17;5.10;;;3.10;;
51525;SDS011;37611;51.794;21.590;2022-07-29T02:40:22;6.50;;;3.90;;
51525;SDS011;37611;51.794;21.590;2022-07-29T02:44:24;6.50;;;3.90;;
51525;SDS011;37611;51.794;21.590;2022-07-29T02:48:28;4.10;;;3.00;;
51525;SDS011;37611;51.794;21.590;2022-07-29T02:52:45;4.90;;;2.60;;
51525;SDS011;37611;51.794;21.590;2022-07-29T02:56:53;4.00;;;2.60;;
51525;SDS011;37611;51.794;21.590;2022-07-29T03:01:02;5.00;;;2.60;;
51525;SDS011;37611;51.794;21.590;2022-07-29T03:05:06;7.30;;;3.80;;
51525;SDS011;37611;51.794;21.590;2022-07-29T03:09:10;5.20;;;3.30;;
51525;SDS011;37611;51.794;21.590;2022-07-29T03:13:13;10.50;;;3.80;;
51525;SDS011;37611;51.794;21.590;2022-07-29T03:17:16;6.30;;;3.00;;
51525;SDS011;37611;51.794;21.590;2022-07-29T03:21:19;6.00;;;2.70;;
51525;SDS011;37611;51.794;21.590;2022-07-29T03:25:21;6.90;;;3.20;;
51525;SDS011;37611;51.794;21.590;2022-07-29T03:29:23;5.00;;;2.70;;
51525;SDS011;37611;51.794;21.590;2022-07-29T03:33:25;11.10;;;4.00;;
51525;SDS011;37611;51.794;21.590;2022-07-29T03:37:27;12.70;;;5.30;;
51525;SDS011;37611;51.794;21.590;2022-07-29T03:41:31;8.20;;;4.60;;
51525;SDS011;37611;51.794;21.590;2022-07-29T03:45:35;11.20;;;4.40;;
51525;SDS011;37611;51.794;21.590;2022-07-29T03:49:39;7.40;;;3.80;;
51525;SDS011;37611;51.794;21.590;2022-07-29T03:53:42;10.60;;;4.40;;
51525;SDS011;37611;51.794;21.590;2022-07-29T03:57:44;16.30;;;5.20;;
51525;SDS011;37611;51.794;21.590;2022-07-29T04:01:47;8.90;;;5.30;;
51525;SDS011;37611;51.794;21.590;2022-07-29T04:06:00;8.00;;;4.10;;
51525;SDS011;37611;51.794;21.590;2022-07-29T04:10:03;8.10;;;3.90;;
51525;SDS011;37611;51.794;21.590;2022-07-29T04:14:06;7.40;;;3.30;;
51525;SDS011;37611;51.794;21.590;2022-07-29T04:18:08;5.90;;;3.90;;
51525;SDS011;37611;51.794;21.590;2022-07-29T04:22:10;11.50;;;4.40;;
51525;SDS011;37611;51.794;21.590;2022-07-29T04:26:11;7.20;;;4.30;;
51525;SDS011;37611;51.794;21.590;2022-07-29T04:30:13;6.90;;;3.50;;
51525;SDS011;37611;51.794;21.590;2022-07-29T04:34:15;8.70;;;3.10;;
51525;SDS011;37611;51.794;21.590;2022-07-29T04:38:16;4.30;;;3.00;;
51525;SDS011;37611;51.794;21.590;2022-07-29T04:42:18;7.00;;;3.70;;
51525;SDS011;37611;51.794;21.590;2022-07-29T04:46:20;7.50;;;3.60;;
51525;SDS011;37611;51.794;21.590;2022-07-29T04:50:22;10.80;;;3.50;;
51525;SDS011;37611;51.794;21.590;2022-07-29T04:54:24;5.30;;;3.00;;
51525;SDS011;37611;51.794;21.590;2022-07-29T04:58:26;7.60;;;3.10;;
51525;SDS011;37611;51.794;21.590;2022-07-29T05:02:27;6.30;;;3.80;;
51525;SDS011;37611;51.794;21.590;2022-07-29T05:06:29;4.40;;;2.80;;
51525;SDS011;37611;51.794;21.590;2022-07-29T05:10:31;7.20;;;3.20;;
51525;SDS011;37611;51.794;21.590;2022-07-29T05:14:32;6.60;;;3.60;;
51525;SDS011;37611;51.794;21.590;2022-07-29T05:18:35;5.80;;;3.10;;
51525;SDS011;37611;51.794;21.590;2022-07-29T05:22:36;5.10;;;2.50;;
51525;SDS011;37611;51.794;21.590;2022-07-29T05:26:38;4.10;;;2.20;;
51525;SDS011;37611;51.794;21.590;2022-07-29T05:30:40;4.80;;;2.50;;
51525;SDS011;37611;51.794;21.590;2022-07-29T05:34:42;6.30;;;2.50;;
51525;SDS011;37611;51.794;21.590;2022-07-29T05:38:44;5.00;;;2.30;;
51525;SDS011;37611;51.794;21.590;2022-07-29T05:42:46;4.90;;;2.20;;
51525;SDS011;37611;51.794;21.590;2022-07-29T05:46:48;4.60;;;1.80;;
51525;SDS011;37611;51.794;21.590;2022-07-29T05:50:50;2.90;;;1.60;;
51525;SDS011;37611;51.794;21.590;2022-07-29T05:54:52;4.30;;;1.70;;
51525;SDS011;37611;51.794;21.590;2022-07-29T05:58:54;4.30;;;1.70;;
51525;SDS011;37611;51.794;21.590;2022-07-29T06:02:56;3.70;;;1.70;;
51525;SDS011;37611;51.794;21.590;2022-07-29T06:06:58;5.50;;;1.70;;
51525;SDS011;37611;51.794;21.590;2022-07-29T06:11:00;3.40;;;1.80;;
51525;SDS011;37611;51.794;21.590;2022-07-29T06:15:03;2.90;;;1.60;;
51525;SDS011;37611;51.794;21.590;2022-07-29T06:19:05;4.30;;;1.60;;
51525;SDS011;37611;51.794;21.590;2022-07-29T06:23:07;4.40;;;1.70;;
51525;SDS011;37611;51.794;21.590;2022-07-29T06:27:11;3.50;;;1.70;;
51525;SDS011;37611;51.794;21.590;2022-07-29T06:31:13;3.50;;;1.80;;
51525;SDS011;37611;51.794;21.590;2022-07-29T06:35:14;3.60;;;1.50;;
51525;SDS011;37611;51.794;21.590;2022-07-29T06:39:16;2.50;;;1.20;;
51525;SDS011;37611;51.794;21.590;2022-07-29T06:43:18;4.20;;;1.10;;
51525;SDS011;37611;51.794;21.590;2022-07-29T06:47:19;2.70;;;1.40;;
51525;SDS011;37611;51.794;21.590;2022-07-29T06:51:24;6.90;;;1.60;;
51525;SDS011;37611;51.794;21.590;2022-07-29T06:55:26;3.30;;;1.50;;
51525;SDS011;37611;51.794;21.590;2022-07-29T06:59:28;5.30;;;1.40;;
51525;SDS011;37611;51.794;21.590;2022-07-29T07:03:30;4.00;;;1.10;;
51525;SDS011;37611;51.794;21.590;2022-07-29T07:07:32;6.40;;;2.00;;
51525;SDS011;37611;51.794;21.590;2022-07-29T07:11:34;2.20;;;1.00;;
51525;SDS011;37611;51.794;21.590;2022-07-29T07:15:36;3.90;;;1.50;;
51525;SDS011;37611;51.794;21.590;2022-07-29T07:19:38;1.90;;;1.00;;
51525;SDS011;37611;51.794;21.590;2022-07-29T07:23:39;3.20;;;1.60;;
51525;SDS011;37611;51.794;21.590;2022-07-29T07:27:41;4.30;;;1.20;;
51525;SDS011;37611;51.794;21.590;2022-07-29T07:31:43;3.30;;;1.10;;
51525;SDS011;37611;51.794;21.590;2022-07-29T07:35:45;2.20;;;1.10;;
51525;SDS011;37611;51.794;21.590;2022-07-29T07:39:47;2.50;;;1.20;;
51525;SDS011;37611;51.794;21.590;2022-07-29T07:43:50;3.60;;;1.20;;
51525;SDS011;37611;51.794;21.590;2022-07-29T07:47:53;5.40;;;1.50;;
51525;SDS011;37611;51.794;21.590;2022-07-29T07:51:55;4.00;;;1.60;;
51525;SDS011;37611;51.794;21.590;2022-07-29T07:55:57;3.80;;;1.10;;
51525;SDS011;37611;51.794;21.590;2022-07-29T07:59:59;5.60;;;1.60;;
51525;SDS011;37611;51.794;21.590;2022-07-29T08:04:00;3.30;;;1.30;;
51525;SDS011;37611;51.794;21.590;2022-07-29T08:08:02;4.30;;;1.10;;
51525;SDS011;37611;51.794;21.590;2022-07-29T08:12:04;3.00;;;1.10;;
51525;SDS011;37611;51.794;21.590;2022-07-29T08:16:07;3.90;;;1.10;;
51525;SDS011;37611;51.794;21.590;2022-07-29T08:20:16;4.40;;;0.70;;
51525;SDS011;37611;51.794;21.590;2022-07-29T08:24:18;5.10;;;1.50;;
51525;SDS011;37611;51.794;21.590;2022-07-29T08:28:39;2.00;;;0.80;;
51525;SDS011;37611;51.794;21.590;2022-07-29T08:32:47;5.50;;;1.50;;
51525;SDS011;37611;51.794;21.590;2022-07-29T08:36:49;5.00;;;1.30;;
51525;SDS011;37611;51.794;21.590;2022-07-29T08:40:51;3.80;;;1.50;;
51525;SDS011;37611;51.794;21.590;2022-07-29T08:44:53;3.90;;;0.90;;
51525;SDS011;37611;51.794;21.590;2022-07-29T08:48:56;4.60;;;1.00;;
51525;SDS011;37611;51.794;21.590;2022-07-29T08:52:57;3.30;;;1.10;;
51525;SDS011;37611;51.794;21.590;2022-07-29T08:56:59;3.60;;;1.20;;
51525;SDS011;37611;51.794;21.590;2022-07-29T09:01:03;3.70;;;1.00;;
51525;SDS011;37611;51.794;21.590;2022-07-29T09:05:05;2.60;;;1.00;;
51525;SDS011;37611;51.794;21.590;2022-07-29T09:09:08;2.30;;;0.90;;
51525;SDS011;37611;51.794;21.590;2022-07-29T09:13:10;4.20;;;1.40;;
51525;SDS011;37611;51.794;21.590;2022-07-29T09:17:45;2.40;;;1.10;;
51525;SDS011;37611;51.794;21.590;2022-07-29T09:21:49;2.70;;;1.20;;
51525;SDS011;37611;51.794;21.590;2022-07-29T09:26:03;3.60;;;1.20;;
51525;SDS011;37611;51.794;21.590;2022-07-29T09:30:08;1.80;;;1.00;;
51525;SDS011;37611;51.794;21.590;2022-07-29T09:34:12;2.70;;;1.00;;
51525;SDS011;37611;51.794;21.590;2022-07-29T09:38:16;4.80;;;1.10;;
51525;SDS011;37611;51.794;21.590;2022-07-29T09:42:27;2.80;;;0.90;;
51525;SDS011;37611;51.794;21.590;2022-07-29T09:46:30;4.00;;;0.90;;
51525;SDS011;37611;51.794;21.590;2022-07-29T09:50:36;4.70;;;1.00;;
51525;SDS011;37611;51.794;21.590;2022-07-29T09:54:41;1.70;;;0.90;;
51525;SDS011;37611;51.794;21.590;2022-07-29T09:58:43;3.10;;;0.70;;
51525;SDS011;37611;51.794;21.590;2022-07-29T10:02:45;3.00;;;1.00;;
51525;SDS011;37611;51.794;21.590;2022-07-29T10:07:01;2.90;;;0.80;;
51525;SDS011;37611;51.794;21.590;2022-07-29T10:15:11;2.80;;;0.70;;
51525;SDS011;37611;51.794;21.590;2022-07-29T10:19:12;3.70;;;0.90;;
51525;SDS011;37611;51.794;21.590;2022-07-29T10:23:15;2.10;;;0.80;;
51525;SDS011;37611;51.794;21.590;2022-07-29T10:27:17;2.50;;;1.20;;
51525;SDS011;37611;51.794;21.590;2022-07-29T10:31:22;4.80;;;1.00;;
51525;SDS011;37611;51.794;21.590;2022-07-29T10:44:31;2.90;;;0.80;;
51525;SDS011;37611;51.794;21.590;2022-07-29T10:48:34;2.30;;;0.70;;
51525;SDS011;37611;51.794;21.590;2022-07-29T10:52:54;1.80;;;0.90;;
51525;SDS011;37611;51.794;21.590;2022-07-29T10:57:13;2.30;;;0.80;;
51525;SDS011;37611;51.794;21.590;2022-07-29T11:01:30;4.50;;;1.00;;
51525;SDS011;37611;51.794;21.590;2022-07-29T11:05:51;2.80;;;0.80;;
51525;SDS011;37611;51.794;21.590;2022-07-29T11:14:15;3.80;;;0.70;;
51525;SDS011;37611;51.794;21.590;2022-07-29T11:18:18;5.50;;;0.90;;
51525;SDS011;37611;51.794;21.590;2022-07-29T11:22:33;2.40;;;0.80;;
51525;SDS011;37611;51.794;21.590;2022-07-29T11:26:36;2.10;;;0.90;;
51525;SDS011;37611;51.794;21.590;2022-07-29T11:30:48;1.60;;;0.60;;
51525;SDS011;37611;51.794;21.590;2022-07-29T11:39:28;2.30;;;1.10;;
51525;SDS011;37611;51.794;21.590;2022-07-29T11:43:52;2.90;;;1.00;;
51525;SDS011;37611;51.794;21.590;2022-07-29T11:47:56;2.00;;;0.90;;
51525;SDS011;37611;51.794;21.590;2022-07-29T11:52:02;3.10;;;0.80;;
51525;SDS011;37611;51.794;21.590;2022-07-29T11:56:03;2.30;;;0.80;;
51525;SDS011;37611;51.794;21.590;2022-07-29T12:00:09;3.50;;;1.40;;
51525;SDS011;37611;51.794;21.590;2022-07-29T12:04:11;3.50;;;1.10;;
51525;SDS011;37611;51.794;21.590;2022-07-29T12:08:18;3.50;;;0.80;;
51525;SDS011;37611;51.794;21.590;2022-07-29T12:12:22;2.90;;;1.10;;
51525;SDS011;37611;51.794;21.590;2022-07-29T12:16:34;3.50;;;1.00;;
51525;SDS011;37611;51.794;21.590;2022-07-29T12:20:37;1.20;;;0.70;;
51525;SDS011;37611;51.794;21.590;2022-07-29T12:24:43;2.30;;;0.80;;
51525;SDS011;37611;51.794;21.590;2022-07-29T12:28:46;4.40;;;1.10;;
51525;SDS011;37611;51.794;21.590;2022-07-29T12:32:48;2.20;;;0.80;;
51525;SDS011;37611;51.794;21.590;2022-07-29T12:36:51;6.10;;;3.40;;
51525;SDS011;37611;51.794;21.590;2022-07-29T12:40:53;2.80;;;1.00;;
51525;SDS011;37611;51.794;21.590;2022-07-29T12:44:56;2.50;;;0.90;;
51525;SDS011;37611;51.794;21.590;2022-07-29T12:48:57;3.30;;;1.00;;
51525;SDS011;37611;51.794;21.590;2022-07-29T12:53:10;2.00;;;0.60;;
51525;SDS011;37611;51.794;21.590;2022-07-29T12:57:13;1.70;;;0.80;;
51525;SDS011;37611;51.794;21.590;2022-07-29T13:01:15;2.90;;;0.80;;
51525;SDS011;37611;51.794;21.590;2022-07-29T13:05:19;2.10;;;1.00;;
51525;SDS011;37611;51.794;21.590;2022-07-29T13:09:22;2.60;;;0.80;;
51525;SDS011;37611;51.794;21.590;2022-07-29T13:13:24;2.60;;;0.80;;
51525;SDS011;37611;51.794;21.590;2022-07-29T13:17:25;2.50;;;0.80;;
51525;SDS011;37611;51.794;21.590;2022-07-29T13:21:30;2.50;;;0.80;;
51525;SDS011;37611;51.794;21.590;2022-07-29T13:25:32;1.80;;;0.80;;
51525;SDS011;37611;51.794;21.590;2022-07-29T13:29:34;5.20;;;0.90;;
51525;SDS011;37611;51.794;21.590;2022-07-29T13:33:35;3.70;;;0.90;;
51525;SDS011;37611;51.794;21.590;2022-07-29T13:37:37;3.70;;;1.00;;
51525;SDS011;37611;51.794;21.590;2022-07-29T13:41:39;4.50;;;0.80;;
51525;SDS011;37611;51.794;21.590;2022-07-29T13:45:41;1.70;;;0.90;;
51525;SDS011;37611;51.794;21.590;2022-07-29T13:49:42;2.60;;;0.80;;
51525;SDS011;37611;51.794;21.590;2022-07-29T13:53:46;3.80;;;0.80;;
51525;SDS011;37611;51.794;21.590;2022-07-29T14:20:33;3.60;;;1.10;;
51525;SDS011;37611;51.794;21.590;2022-07-29T14:24:37;2.00;;;1.20;;
51525;SDS011;37611;51.794;21.590;2022-07-29T14:28:40;5.10;;;1.50;;
51525;SDS011;37611;51.794;21.590;2022-07-29T14:32:42;2.30;;;1.10;;
51525;SDS011;37611;51.794;21.590;2022-07-29T14:36:44;3.90;;;0.70;;
51525;SDS011;37611;51.794;21.590;2022-07-29T14:40:46;2.70;;;0.80;;
51525;SDS011;37611;51.794;21.590;2022-07-29T14:44:48;2.40;;;1.10;;
51525;SDS011;37611;51.794;21.590;2022-07-29T14:48:50;5.50;;;0.80;;
51525;SDS011;37611;51.794;21.590;2022-07-29T14:52:52;1.80;;;0.70;;
51525;SDS011;37611;51.794;21.590;2022-07-29T14:56:54;3.80;;;1.10;;
51525;SDS011;37611;51.794;21.590;2022-07-29T15:00:58;1.80;;;0.80;;
51525;SDS011;37611;51.794;21.590;2022-07-29T15:04:59;1.50;;;0.70;;
51525;SDS011;37611;51.794;21.590;2022-07-29T15:09:02;3.50;;;0.90;;
51525;SDS011;37611;51.794;21.590;2022-07-29T15:13:03;2.50;;;0.70;;
51525;SDS011;37611;51.794;21.590;2022-07-29T15:17:05;4.90;;;1.00;;
51525;SDS011;37611;51.794;21.590;2022-07-29T15:21:07;1.40;;;0.60;;
51525;SDS011;37611;51.794;21.590;2022-07-29T15:25:09;3.00;;;0.80;;
51525;SDS011;37611;51.794;21.590;2022-07-29T15:29:11;3.20;;;0.80;;
51525;SDS011;37611;51.794;21.590;2022-07-29T15:33:13;5.20;;;1.20;;
51525;SDS011;37611;51.794;21.590;2022-07-29T15:37:15;7.20;;;1.10;;
51525;SDS011;37611;51.794;21.590;2022-07-29T15:41:16;2.20;;;0.80;;
51525;SDS011;37611;51.794;21.590;2022-07-29T15:45:18;3.20;;;0.80;;
51525;SDS011;37611;51.794;21.590;2022-07-29T15:49:20;0.90;;;0.60;;
51525;SDS011;37611;51.794;21.590;2022-07-29T15:53:22;3.40;;;1.00;;
51525;SDS011;37611;51.794;21.590;2022-07-29T15:57:26;3.30;;;0.90;;
51525;SDS011;37611;51.794;21.590;2022-07-29T16:01:27;1.70;;;1.10;;
51525;SDS011;37611;51.794;21.590;2022-07-29T16:05:30;2.90;;;0.80;;
51525;SDS011;37611;51.794;21.590;2022-07-29T16:09:32;6.30;;;1.30;;
51525;SDS011;37611;51.794;21.590;2022-07-29T16:13:35;5.40;;;3.10;;
51525;SDS011;37611;51.794;21.590;2022-07-29T16:17:37;5.80;;;2.60;;
51525;SDS011;37611;51.794;21.590;2022-07-29T16:21:39;6.30;;;2.10;;
51525;SDS011;37611;51.794;21.590;2022-07-29T16:25:41;3.80;;;1.60;;
51525;SDS011;37611;51.794;21.590;2022-07-29T16:29:43;7.10;;;1.50;;
51525;SDS011;37611;51.794;21.590;2022-07-29T16:33:50;3.30;;;1.00;;
51525;SDS011;37611;51.794;21.590;2022-07-29T16:37:52;2.80;;;1.40;;
51525;SDS011;37611;51.794;21.590;2022-07-29T16:41:54;1.80;;;1.40;;
51525;SDS011;37611;51.794;21.590;2022-07-29T16:45:56;3.40;;;1.20;;
51525;SDS011;37611;51.794;21.590;2022-07-29T16:49:58;1.90;;;1.10;;
51525;SDS011;37611;51.794;21.590;2022-07-29T16:54:00;2.70;;;1.20;;
51525;SDS011;37611;51.794;21.590;2022-07-29T16:58:02;3.40;;;1.10;;
51525;SDS011;37611;51.794;21.590;2022-07-29T17:02:04;5.20;;;1.30;;
51525;SDS011;37611;51.794;21.590;2022-07-29T17:06:06;2.10;;;1.00;;
51525;SDS011;37611;51.794;21.590;2022-07-29T17:10:08;1.80;;;1.00;;
51525;SDS011;37611;51.794;21.590;2022-07-29T17:14:10;3.10;;;1.00;;
51525;SDS011;37611;51.794;21.590;2022-07-29T17:18:13;1.80;;;1.00;;
51525;SDS011;37611;51.794;21.590;2022-07-29T17:22:14;5.10;;;1.10;;
51525;SDS011;37611;51.794;21.590;2022-07-29T17:26:16;4.40;;;1.00;;
51525;SDS011;37611;51.794;21.590;2022-07-29T17:30:19;3.10;;;0.80;;
51525;SDS011;37611;51.794;21.590;2022-07-29T17:34:20;1.60;;;1.00;;
51525;SDS011;37611;51.794;21.590;2022-07-29T17:38:22;5.60;;;1.10;;
51525;SDS011;37611;51.794;21.590;2022-07-29T17:42:24;6.10;;;1.00;;
51525;SDS011;37611;51.794;21.590;2022-07-29T17:46:26;1.90;;;1.10;;
51525;SDS011;37611;51.794;21.590;2022-07-29T17:50:28;3.00;;;0.90;;
51525;SDS011;37611;51.794;21.590;2022-07-29T17:54:30;6.00;;;1.10;;
51525;SDS011;37611;51.794;21.590;2022-07-29T17:58:32;3.60;;;1.00;;
51525;SDS011;37611;51.794;21.590;2022-07-29T18:02:34;2.30;;;1.00;;
51525;SDS011;37611;51.794;21.590;2022-07-29T18:06:37;4.50;;;1.10;;
51525;SDS011;37611;51.794;21.590;2022-07-29T18:10:39;3.70;;;1.20;;
51525;SDS011;37611;51.794;21.590;2022-07-29T18:14:41;2.60;;;0.70;;
51525;SDS011;37611;51.794;21.590;2022-07-29T18:18:43;2.70;;;1.10;;
51525;SDS011;37611;51.794;21.590;2022-07-29T18:22:45;2.80;;;1.30;;
51525;SDS011;37611;51.794;21.590;2022-07-29T18:26:47;2.80;;;1.30;;
51525;SDS011;37611;51.794;21.590;2022-07-29T18:30:49;3.50;;;1.10;;
51525;SDS011;37611;51.794;21.590;2022-07-29T18:34:51;3.30;;;1.10;;
51525;SDS011;37611;51.794;21.590;2022-07-29T18:38:53;2.70;;;1.40;;
51525;SDS011;37611;51.794;21.590;2022-07-29T18:42:55;3.80;;;1.50;;
51525;SDS011;37611;51.794;21.590;2022-07-29T18:46:57;5.10;;;2.00;;
51525;SDS011;37611;51.794;21.590;2022-07-29T18:50:59;3.80;;;2.40;;
51525;SDS011;37611;51.794;21.590;2022-07-29T18:55:02;9.70;;;4.70;;
51525;SDS011;37611;51.794;21.590;2022-07-29T18:59:04;6.50;;;2.80;;
51525;SDS011;37611;51.794;21.590;2022-07-29T19:03:06;3.20;;;1.40;;
51525;SDS011;37611;51.794;21.590;2022-07-29T19:07:08;4.50;;;1.70;;
51525;SDS011;37611;51.794;21.590;2022-07-29T19:11:10;4.70;;;1.80;;
51525;SDS011;37611;51.794;21.590;2022-07-29T19:15:13;4.30;;;2.10;;
51525;SDS011;37611;51.794;21.590;2022-07-29T19:19:14;8.90;;;2.20;;
51525;SDS011;37611;51.794;21.590;2022-07-29T19:23:16;3.20;;;1.90;;
51525;SDS011;37611;51.794;21.590;2022-07-29T19:27:18;4.70;;;2.40;;
51525;SDS011;37611;51.794;21.590;2022-07-29T19:31:20;3.50;;;1.90;;
51525;SDS011;37611;51.794;21.590;2022-07-29T19:35:22;4.20;;;1.70;;
51525;SDS011;37611;51.794;21.590;2022-07-29T19:39:32;4.20;;;1.80;;
51525;SDS011;37611;51.794;21.590;2022-07-29T19:43:34;7.70;;;5.30;;
51525;SDS011;37611;51.794;21.590;2022-07-29T19:47:36;7.90;;;6.30;;
51525;SDS011;37611;51.794;21.590;2022-07-29T19:51:39;7.80;;;3.20;;
51525;SDS011;37611;51.794;21.590;2022-07-29T19:55:41;3.80;;;2.20;;
51525;SDS011;37611;51.794;21.590;2022-07-29T19:59:43;5.00;;;2.20;;
51525;SDS011;37611;51.794;21.590;2022-07-29T20:03:45;5.10;;;2.10;;
51525;SDS011;37611;51.794;21.590;2022-07-29T20:07:47;5.20;;;2.20;;
51525;SDS011;37611;51.794;21.590;2022-07-29T20:11:48;5.70;;;1.90;;
51525;SDS011;37611;51.794;21.590;2022-07-29T20:15:50;3.30;;;2.10;;
51525;SDS011;37611;51.794;21.590;2022-07-29T20:19:52;3.10;;;2.10;;
51525;SDS011;37611;51.794;21.590;2022-07-29T20:23:54;5.40;;;3.50;;
51525;SDS011;37611;51.794;21.590;2022-07-29T20:28:00;5.20;;;2.30;;
51525;SDS011;37611;51.794;21.590;2022-07-29T20:32:02;4.00;;;2.50;;
51525;SDS011;37611;51.794;21.590;2022-07-29T20:36:04;4.20;;;2.10;;
51525;SDS011;37611;51.794;21.590;2022-07-29T20:40:07;3.50;;;2.10;;
51525;SDS011;37611;51.794;21.590;2022-07-29T20:44:09;5.90;;;2.00;;
51525;SDS011;37611;51.794;21.590;2022-07-29T20:48:11;4.80;;;1.80;;
51525;SDS011;37611;51.794;21.590;2022-07-29T20:52:14;2.70;;;1.80;;
51525;SDS011;37611;51.794;21.590;2022-07-29T20:56:15;3.00;;;2.00;;
51525;SDS011;37611;51.794;21.590;2022-07-29T21:00:18;5.20;;;2.10;;
51525;SDS011;37611;51.794;21.590;2022-07-29T21:04:20;3.90;;;2.00;;
51525;SDS011;37611;51.794;21.590;2022-07-29T21:08:21;4.80;;;1.90;;
51525;SDS011;37611;51.794;21.590;2022-07-29T21:12:23;6.30;;;2.10;;
51525;SDS011;37611;51.794;21.590;2022-07-29T21:16:25;5.00;;;2.00;;
51525;SDS011;37611;51.794;21.590;2022-07-29T21:20:28;3.70;;;1.50;;
51525;SDS011;37611;51.794;21.590;2022-07-29T21:24:31;5.60;;;1.60;;
51525;SDS011;37611;51.794;21.590;2022-07-29T21:28:33;3.70;;;1.70;;
51525;SDS011;37611;51.794;21.590;2022-07-29T21:32:41;3.80;;;1.70;;
51525;SDS011;37611;51.794;21.590;2022-07-29T21:36:43;2.30;;;1.90;;
51525;SDS011;37611;51.794;21.590;2022-07-29T21:40:45;4.10;;;2.20;;
51525;SDS011;37611;51.794;21.590;2022-07-29T21:44:48;2.90;;;1.30;;
51525;SDS011;37611;51.794;21.590;2022-07-29T21:48:50;4.00;;;1.70;;
51525;SDS011;37611;51.794;21.590;2022-07-29T21:52:52;3.80;;;1.70;;
51525;SDS011;37611;51.794;21.590;2022-07-29T21:56:54;3.10;;;2.00;;
51525;SDS011;37611;51.794;21.590;2022-07-29T22:00:55;7.00;;;1.90;;
51525;SDS011;37611;51.794;21.590;2022-07-29T22:04:57;3.70;;;1.70;;
51525;SDS011;37611;51.794;21.590;2022-07-29T22:08:59;3.40;;;1.70;;
51525;SDS011;37611;51.794;21.590;2022-07-29T22:13:01;2.60;;;1.40;;
51525;SDS011;37611;51.794;21.590;2022-07-29T22:17:03;2.30;;;1.70;;
51525;SDS011;37611;51.794;21.590;2022-07-29T22:21:05;3.20;;;1.60;;
51525;SDS011;37611;51.794;21.590;2022-07-29T22:25:07;3.70;;;2.00;;
51525;SDS011;37611;51.794;21.590;2022-07-29T22:29:10;4.70;;;1.60;;
51525;SDS011;37611;51.794;21.590;2022-07-29T22:33:12;3.90;;;1.70;;
51525;SDS011;37611;51.794;21.590;2022-07-29T22:37:13;3.00;;;1.40;;
51525;SDS011;37611;51.794;21.590;2022-07-29T22:41:16;2.80;;;1.60;;
51525;SDS011;37611;51.794;21.590;2022-07-29T22:45:17;5.80;;;1.80;;
51525;SDS011;37611;51.794;21.590;2022-07-29T22:49:19;3.10;;;1.40;;
51525;SDS011;37611;51.794;21.590;2022-07-29T22:53:21;2.10;;;1.20;;
51525;SDS011;37611;51.794;21.590;2022-07-29T22:57:22;4.20;;;1.70;;
51525;SDS011;37611;51.794;21.590;2022-07-29T23:01:24;2.80;;;1.40;;
51525;SDS011;37611;51.794;21.590;2022-07-29T23:05:26;8.20;;;3.70;;
51525;SDS011;37611;51.794;21.590;2022-07-29T23:09:28;4.30;;;1.60;;
51525;SDS011;37611;51.794;21.590;2022-07-29T23:13:30;6.70;;;2.00;;
51525;SDS011;37611;51.794;21.590;2022-07-29T23:17:32;4.80;;;1.70;;
51525;SDS011;37611;51.794;21.590;2022-07-29T23:21:34;3.10;;;1.50;;
51525;SDS011;37611;51.794;21.590;2022-07-29T23:25:36;7.20;;;1.70;;
51525;SDS011;37611;51.794;21.590;2022-07-29T23:29:38;4.70;;;1.60;;
51525;SDS011;37611;51.794;21.590;2022-07-29T23:33:40;4.70;;;1.60;;
51525;SDS011;37611;51.794;21.590;2022-07-29T23:37:42;4.00;;;1.50;;
51525;SDS011;37611;51.794;21.590;2022-07-29T23:41:44;5.90;;;1.80;;
51525;SDS011;37611;51.794;21.590;2022-07-29T23:54:17;5.80;;;1.90;;
51525;SDS011;37611;51.794;21.590;2022-07-29T23:58:18;8.50;;;2.00;;
